sensor_id;sensor_type;location;lat;lon;timestamp;temperature;humidity
56861;DHT22;42744;51.094;3.490;2022-09-09T00:04:28;15.00;99.90
56861;DHT22;42744;51.094;3.490;2022-09-09T00:15:46;15.00;99.90
56861;DHT22;42744;51.094;3.490;2022-09-09T00:21:13;15.00;99.90
56861;DHT22;42744;51.094;3.490;2022-09-09T00:24:04;15.00;99.90
56861;DHT22;42744;51.094;3.490;2022-09-09T00:26:42;15.00;99.90
56861;DHT22;42744;51.094;3.490;2022-09-09T00:31:51;14.90;99.90
56861;DHT22;42744;51.094;3.490;2022-09-09T00:34:23;14.90;99.90
56861;DHT22;42744;51.094;3.490;2022-09-09T00:36:52;14.90;99.90
56861;DHT22;42744;51.094;3.490;2022-09-09T00:39:46;14.90;99.90
56861;DHT22;42744;51.094;3.490;2022-09-09T00:42:20;14.90;99.90
56861;DHT22;42744;51.094;3.490;2022-09-09T00:47:53;14.90;99.90
56861;DHT22;42744;51.094;3.490;2022-09-09T00:53:55;14.90;99.90
56861;DHT22;42744;51.094;3.490;2022-09-09T00:56:30;14.90;99.90
56861;DHT22;42744;51.094;3.490;2022-09-09T01:05:20;14.90;99.90
56861;DHT22;42744;51.094;3.490;2022-09-09T01:07:48;14.90;99.90
56861;DHT22;42744;51.094;3.490;2022-09-09T01:13:20;14.90;99.90
56861;DHT22;42744;51.094;3.490;2022-09-09T01:15:48;14.80;99.90
56861;DHT22;42744;51.094;3.490;2022-09-09T01:18:17;14.80;99.90
56861;DHT22;42744;51.094;3.490;2022-09-09T01:21:00;14.90;99.90
56861;DHT22;42744;51.094;3.490;2022-09-09T01:26:33;14.80;99.90
56861;DHT22;42744;51.094;3.490;2022-09-09T01:29:01;14.80;99.90
56861;DHT22;42744;51.094;3.490;2022-09-09T01:31:34;14.80;99.90
56861;DHT22;42744;51.094;3.490;2022-09-09T01:34:04;14.80;99.90
56861;DHT22;42744;51.094;3.490;2022-09-09T01:36:47;14.80;99.90
56861;DHT22;42744;51.094;3.490;2022-09-09T01:39:16;14.80;99.90
56861;DHT22;42744;51.094;3.490;2022-09-09T01:41:43;14.80;99.90
56861;DHT22;42744;51.094;3.490;2022-09-09T01:44:09;14.80;99.90
56861;DHT22;42744;51.094;3.490;2022-09-09T01:46:37;14.80;99.90
56861;DHT22;42744;51.094;3.490;2022-09-09T01:49:05;14.80;99.90
56861;DHT22;42744;51.094;3.490;2022-09-09T01:51:33;14.80;99.90
56861;DHT22;42744;51.094;3.490;2022-09-09T01:54:01;14.80;99.90
56861;DHT22;42744;51.094;3.490;2022-09-09T02:02:10;14.80;99.90
56861;DHT22;42744;51.094;3.490;2022-09-09T02:04:49;14.80;99.90
56861;DHT22;42744;51.094;3.490;2022-09-09T02:07:37;14.80;99.90
56861;DHT22;42744;51.094;3.490;2022-09-09T02:10:30;14.80;99.90
56861;DHT22;42744;51.094;3.490;2022-09-09T02:13:29;14.80;99.90
56861;DHT22;42744;51.094;3.490;2022-09-09T02:16:03;14.80;99.90
56861;DHT22;42744;51.094;3.490;2022-09-09T02:18:46;14.80;99.90
56861;DHT22;42744;51.094;3.490;2022-09-09T02:21:16;14.90;99.90
56861;DHT22;42744;51.094;3.490;2022-09-09T02:23:43;14.90;99.90
56861;DHT22;42744;51.094;3.490;2022-09-09T02:26:13;14.90;99.90
56861;DHT22;42744;51.094;3.490;2022-09-09T02:28:48;14.90;99.90
56861;DHT22;42744;51.094;3.490;2022-09-09T02:31:17;14.90;99.90
56861;DHT22;42744;51.094;3.490;2022-09-09T02:33:47;14.90;99.90
56861;DHT22;42744;51.094;3.490;2022-09-09T02:36:15;14.90;99.90
56861;DHT22;42744;51.094;3.490;2022-09-09T02:38:46;14.90;99.90
56861;DHT22;42744;51.094;3.490;2022-09-09T02:41:24;15.00;99.90
56861;DHT22;42744;51.094;3.490;2022-09-09T02:43:51;15.00;99.90
56861;DHT22;42744;51.094;3.490;2022-09-09T02:52:01;15.00;99.90
56861;DHT22;42744;51.094;3.490;2022-09-09T02:54:31;15.00;99.90
56861;DHT22;42744;51.094;3.490;2022-09-09T02:59:37;15.00;99.90
56861;DHT22;42744;51.094;3.490;2022-09-09T03:02:03;15.00;99.90
56861;DHT22;42744;51.094;3.490;2022-09-09T03:04:30;15.00;99.90
56861;DHT22;42744;51.094;3.490;2022-09-09T03:06:57;15.00;99.90
56861;DHT22;42744;51.094;3.490;2022-09-09T03:09:24;15.00;99.90
56861;DHT22;42744;51.094;3.490;2022-09-09T03:11:52;15.00;99.90
56861;DHT22;42744;51.094;3.490;2022-09-09T03:14:18;15.00;99.90
56861;DHT22;42744;51.094;3.490;2022-09-09T03:16:47;15.00;99.90
56861;DHT22;42744;51.094;3.490;2022-09-09T03:19:16;15.00;99.90
56861;DHT22;42744;51.094;3.490;2022-09-09T03:21:41;15.00;99.90
56861;DHT22;42744;51.094;3.490;2022-09-09T03:24:08;15.00;99.90
56861;DHT22;42744;51.094;3.490;2022-09-09T03:26:35;15.00;99.90
56861;DHT22;42744;51.094;3.490;2022-09-09T03:29:04;15.00;99.90
56861;DHT22;42744;51.094;3.490;2022-09-09T03:31:33;15.00;99.90
56861;DHT22;42744;51.094;3.490;2022-09-09T03:33:59;15.00;99.90
56861;DHT22;42744;51.094;3.490;2022-09-09T03:36:26;15.00;99.90
56861;DHT22;42744;51.094;3.490;2022-09-09T03:38:53;15.00;99.90
56861;DHT22;42744;51.094;3.490;2022-09-09T03:41:24;15.00;99.90
56861;DHT22;42744;51.094;3.490;2022-09-09T03:43:51;15.00;99.90
56861;DHT22;42744;51.094;3.490;2022-09-09T03:46:18;15.00;99.90
56861;DHT22;42744;51.094;3.490;2022-09-09T03:48:44;15.00;99.90
56861;DHT22;42744;51.094;3.490;2022-09-09T03:51:10;15.00;99.90
56861;DHT22;42744;51.094;3.490;2022-09-09T03:53:37;15.10;99.90
56861;DHT22;42744;51.094;3.490;2022-09-09T03:56:04;15.10;99.90
56861;DHT22;42744;51.094;3.490;2022-09-09T03:58:33;15.10;99.90
56861;DHT22;42744;51.094;3.490;2022-09-09T04:01:03;15.10;99.90
56861;DHT22;42744;51.094;3.490;2022-09-09T04:03:31;15.00;99.90
56861;DHT22;42744;51.094;3.490;2022-09-09T04:06:01;15.00;99.90
56861;DHT22;42744;51.094;3.490;2022-09-09T04:08:29;15.00;99.90
56861;DHT22;42744;51.094;3.490;2022-09-09T04:10:58;15.00;99.90
56861;DHT22;42744;51.094;3.490;2022-09-09T04:13:25;15.00;99.90
56861;DHT22;42744;51.094;3.490;2022-09-09T04:15:53;15.00;99.90
56861;DHT22;42744;51.094;3.490;2022-09-09T04:18:20;15.00;99.90
56861;DHT22;42744;51.094;3.490;2022-09-09T04:20:51;15.00;99.90
56861;DHT22;42744;51.094;3.490;2022-09-09T04:23:19;15.00;99.90
56861;DHT22;42744;51.094;3.490;2022-09-09T04:25:53;15.00;99.90
56861;DHT22;42744;51.094;3.490;2022-09-09T04:28:22;15.00;99.90
56861;DHT22;42744;51.094;3.490;2022-09-09T04:30:50;15.00;99.90
56861;DHT22;42744;51.094;3.490;2022-09-09T04:33:16;15.00;99.90
56861;DHT22;42744;51.094;3.490;2022-09-09T04:35:47;14.90;99.90
56861;DHT22;42744;51.094;3.490;2022-09-09T04:38:15;14.90;99.90
56861;DHT22;42744;51.094;3.490;2022-09-09T04:40:46;14.90;99.90
56861;DHT22;42744;51.094;3.490;2022-09-09T04:43:13;14.90;99.90
56861;DHT22;42744;51.094;3.490;2022-09-09T04:45:41;14.90;99.90
56861;DHT22;42744;51.094;3.490;2022-09-09T04:48:07;14.90;99.90
56861;DHT22;42744;51.094;3.490;2022-09-09T04:50:35;14.90;99.90
56861;DHT22;42744;51.094;3.490;2022-09-09T04:53:02;14.90;99.90
56861;DHT22;42744;51.094;3.490;2022-09-09T04:55:29;14.90;99.90
56861;DHT22;42744;51.094;3.490;2022-09-09T04:57:57;14.90;99.90
56861;DHT22;42744;51.094;3.490;2022-09-09T05:00:24;14.90;99.90
56861;DHT22;42744;51.094;3.490;2022-09-09T05:02:50;14.90;99.90
56861;DHT22;42744;51.094;3.490;2022-09-09T05:05:17;14.90;99.90
56861;DHT22;42744;51.094;3.490;2022-09-09T05:07:45;14.80;99.90
56861;DHT22;42744;51.094;3.490;2022-09-09T05:10:13;14.80;99.90
56861;DHT22;42744;51.094;3.490;2022-09-09T05:12:42;14.90;99.90
56861;DHT22;42744;51.094;3.490;2022-09-09T05:15:08;14.80;99.90
56861;DHT22;42744;51.094;3.490;2022-09-09T05:17:35;14.80;99.90
56861;DHT22;42744;51.094;3.490;2022-09-09T05:20:01;14.90;99.90
56861;DHT22;42744;51.094;3.490;2022-09-09T05:22:30;14.80;99.90
56861;DHT22;42744;51.094;3.490;2022-09-09T05:24:56;14.80;99.90
56861;DHT22;42744;51.094;3.490;2022-09-09T05:27:22;14.80;99.90
56861;DHT22;42744;51.094;3.490;2022-09-09T05:29:48;14.70;99.90
56861;DHT22;42744;51.094;3.490;2022-09-09T05:32:14;14.80;99.90
56861;DHT22;42744;51.094;3.490;2022-09-09T05:34:43;14.70;99.90
56861;DHT22;42744;51.094;3.490;2022-09-09T05:37:09;14.70;99.90
56861;DHT22;42744;51.094;3.490;2022-09-09T05:39:36;14.70;99.90
56861;DHT22;42744;51.094;3.490;2022-09-09T05:42:03;14.80;99.90
56861;DHT22;42744;51.094;3.490;2022-09-09T05:44:31;14.70;99.90
56861;DHT22;42744;51.094;3.490;2022-09-09T05:46:57;14.80;99.90
56861;DHT22;42744;51.094;3.490;2022-09-09T05:49:24;14.80;99.90
56861;DHT22;42744;51.094;3.490;2022-09-09T05:51:50;14.80;99.90
56861;DHT22;42744;51.094;3.490;2022-09-09T05:54:17;14.70;99.90
56861;DHT22;42744;51.094;3.490;2022-09-09T05:56:44;14.80;99.90
56861;DHT22;42744;51.094;3.490;2022-09-09T05:59:10;14.80;99.90
56861;DHT22;42744;51.094;3.490;2022-09-09T06:01:38;14.80;99.90
56861;DHT22;42744;51.094;3.490;2022-09-09T06:04:08;14.80;99.90
56861;DHT22;42744;51.094;3.490;2022-09-09T06:06:37;14.80;99.90
56861;DHT22;42744;51.094;3.490;2022-09-09T06:09:07;14.90;99.90
56861;DHT22;42744;51.094;3.490;2022-09-09T06:11:39;14.90;99.90
56861;DHT22;42744;51.094;3.490;2022-09-09T06:14:06;14.90;99.90
56861;DHT22;42744;51.094;3.490;2022-09-09T06:16:33;14.90;99.90
56861;DHT22;42744;51.094;3.490;2022-09-09T06:19:01;15.00;99.90
56861;DHT22;42744;51.094;3.490;2022-09-09T06:21:36;14.90;99.90
56861;DHT22;42744;51.094;3.490;2022-09-09T06:24:04;15.00;99.90
56861;DHT22;42744;51.094;3.490;2022-09-09T06:26:35;15.00;99.90
56861;DHT22;42744;51.094;3.490;2022-09-09T06:29:03;15.00;99.90
56861;DHT22;42744;51.094;3.490;2022-09-09T06:31:33;15.00;99.90
56861;DHT22;42744;51.094;3.490;2022-09-09T06:34:00;15.00;99.90
56861;DHT22;42744;51.094;3.490;2022-09-09T06:36:32;15.10;99.90
56861;DHT22;42744;51.094;3.490;2022-09-09T06:38:59;15.10;99.90
56861;DHT22;42744;51.094;3.490;2022-09-09T06:41:30;15.10;99.90
56861;DHT22;42744;51.094;3.490;2022-09-09T06:43:57;15.20;99.90
56861;DHT22;42744;51.094;3.490;2022-09-09T06:46:29;15.20;99.90
56861;DHT22;42744;51.094;3.490;2022-09-09T06:48:57;15.20;99.90
56861;DHT22;42744;51.094;3.490;2022-09-09T06:51:27;15.20;99.90
56861;DHT22;42744;51.094;3.490;2022-09-09T06:53:55;15.20;99.90
56861;DHT22;42744;51.094;3.490;2022-09-09T06:56:27;15.30;99.90
56861;DHT22;42744;51.094;3.490;2022-09-09T06:58:56;15.40;99.90
56861;DHT22;42744;51.094;3.490;2022-09-09T07:01:29;15.40;99.90
56861;DHT22;42744;51.094;3.490;2022-09-09T07:03:57;15.40;99.90
56861;DHT22;42744;51.094;3.490;2022-09-09T07:06:27;15.40;99.90
56861;DHT22;42744;51.094;3.490;2022-09-09T07:08:58;15.40;99.90
56861;DHT22;42744;51.094;3.490;2022-09-09T07:11:27;15.40;99.90
56861;DHT22;42744;51.094;3.490;2022-09-09T07:13:56;15.40;99.90
56861;DHT22;42744;51.094;3.490;2022-09-09T07:16:23;15.40;99.90
56861;DHT22;42744;51.094;3.490;2022-09-09T07:18:51;15.40;99.90
56861;DHT22;42744;51.094;3.490;2022-09-09T07:21:19;15.40;99.90
56861;DHT22;42744;51.094;3.490;2022-09-09T07:23:46;15.40;99.90
56861;DHT22;42744;51.094;3.490;2022-09-09T07:26:17;15.40;99.90
56861;DHT22;42744;51.094;3.490;2022-09-09T07:28:45;15.40;99.90
56861;DHT22;42744;51.094;3.490;2022-09-09T07:31:19;15.40;99.90
56861;DHT22;42744;51.094;3.490;2022-09-09T07:33:47;15.40;99.90
56861;DHT22;42744;51.094;3.490;2022-09-09T07:36:22;15.40;99.90
56861;DHT22;42744;51.094;3.490;2022-09-09T07:38:57;15.40;99.90
56861;DHT22;42744;51.094;3.490;2022-09-09T07:41:30;15.40;99.90
56861;DHT22;42744;51.094;3.490;2022-09-09T07:43:58;15.40;99.90
56861;DHT22;42744;51.094;3.490;2022-09-09T07:46:26;15.40;99.90
56861;DHT22;42744;51.094;3.490;2022-09-09T07:48:54;15.40;99.90
56861;DHT22;42744;51.094;3.490;2022-09-09T07:51:34;15.40;99.90
56861;DHT22;42744;51.094;3.490;2022-09-09T07:54:02;15.40;99.90
56861;DHT22;42744;51.094;3.490;2022-09-09T07:56:30;15.40;99.90
56861;DHT22;42744;51.094;3.490;2022-09-09T07:58:57;15.40;99.90
56861;DHT22;42744;51.094;3.490;2022-09-09T08:01:31;15.40;99.90
56861;DHT22;42744;51.094;3.490;2022-09-09T08:04:09;15.40;99.90
56861;DHT22;42744;51.094;3.490;2022-09-09T08:06:39;15.40;99.90
56861;DHT22;42744;51.094;3.490;2022-09-09T08:09:07;15.40;99.90
56861;DHT22;42744;51.094;3.490;2022-09-09T08:11:34;15.40;99.90
56861;DHT22;42744;51.094;3.490;2022-09-09T08:14:02;15.40;99.90
56861;DHT22;42744;51.094;3.490;2022-09-09T08:16:31;15.40;99.90
56861;DHT22;42744;51.094;3.490;2022-09-09T08:18:59;15.40;99.90
56861;DHT22;42744;51.094;3.490;2022-09-09T08:21:30;15.40;99.90
56861;DHT22;42744;51.094;3.490;2022-09-09T08:23:59;15.40;99.90
56861;DHT22;42744;51.094;3.490;2022-09-09T08:26:31;15.40;99.90
56861;DHT22;42744;51.094;3.490;2022-09-09T08:28:59;15.50;99.90
56861;DHT22;42744;51.094;3.490;2022-09-09T08:31:32;15.50;99.90
56861;DHT22;42744;51.094;3.490;2022-09-09T08:34:00;15.50;99.90
56861;DHT22;42744;51.094;3.490;2022-09-09T08:36:33;15.50;99.90
56861;DHT22;42744;51.094;3.490;2022-09-09T08:39:00;15.60;99.90
56861;DHT22;42744;51.094;3.490;2022-09-09T09:09:08;16.30;99.90
56861;DHT22;42744;51.094;3.490;2022-09-09T09:11:54;16.30;99.90
56861;DHT22;42744;51.094;3.490;2022-09-09T09:14:24;16.40;99.90
56861;DHT22;42744;51.094;3.490;2022-09-09T09:17:01;16.40;99.90
56861;DHT22;42744;51.094;3.490;2022-09-09T09:19:31;16.50;99.90
56861;DHT22;42744;51.094;3.490;2022-09-09T09:24:52;16.80;99.90
56861;DHT22;42744;51.094;3.490;2022-09-09T09:27:32;17.00;99.90
56861;DHT22;42744;51.094;3.490;2022-09-09T09:30:15;17.20;99.90
56861;DHT22;42744;51.094;3.490;2022-09-09T09:32:54;17.50;99.90
56861;DHT22;42744;51.094;3.490;2022-09-09T09:35:21;17.60;99.90
56861;DHT22;42744;51.094;3.490;2022-09-09T09:37:47;17.50;99.90
56861;DHT22;42744;51.094;3.490;2022-09-09T09:40:16;17.40;99.90
56861;DHT22;42744;51.094;3.490;2022-09-09T09:42:59;17.30;99.90
56861;DHT22;42744;51.094;3.490;2022-09-09T09:45:32;17.20;99.90
56861;DHT22;42744;51.094;3.490;2022-09-09T09:48:12;17.20;99.90
56861;DHT22;42744;51.094;3.490;2022-09-09T09:50:57;17.10;99.90
56861;DHT22;42744;51.094;3.490;2022-09-09T09:53:27;17.10;99.90
56861;DHT22;42744;51.094;3.490;2022-09-09T09:58:30;17.20;99.90
56861;DHT22;42744;51.094;3.490;2022-09-09T10:00:58;17.30;99.90
56861;DHT22;42744;51.094;3.490;2022-09-09T10:03:33;17.30;99.90
56861;DHT22;42744;51.094;3.490;2022-09-09T10:06:05;17.40;99.90
56861;DHT22;42744;51.094;3.490;2022-09-09T10:08:43;17.40;99.90
56861;DHT22;42744;51.094;3.490;2022-09-09T10:16:56;17.60;99.90
56861;DHT22;42744;51.094;3.490;2022-09-09T10:19:33;17.70;99.90
56861;DHT22;42744;51.094;3.490;2022-09-09T10:27:19;17.90;99.90
56861;DHT22;42744;51.094;3.490;2022-09-09T10:35:04;18.10;99.90
56861;DHT22;42744;51.094;3.490;2022-09-09T10:43:16;18.00;99.90
56861;DHT22;42744;51.094;3.490;2022-09-09T10:49:08;18.00;99.90
56861;DHT22;42744;51.094;3.490;2022-09-09T10:57:17;18.90;99.90
56861;DHT22;42744;51.094;3.490;2022-09-09T10:59:50;19.00;99.90
56861;DHT22;42744;51.094;3.490;2022-09-09T11:02:28;19.00;99.90
56861;DHT22;42744;51.094;3.490;2022-09-09T11:07:43;19.00;99.90
56861;DHT22;42744;51.094;3.490;2022-09-09T11:10:18;19.10;99.90
56861;DHT22;42744;51.094;3.490;2022-09-09T11:12:50;19.10;99.90
56861;DHT22;42744;51.094;3.490;2022-09-09T11:15:30;19.00;99.90
56861;DHT22;42744;51.094;3.490;2022-09-09T11:18:01;18.90;99.90
56861;DHT22;42744;51.094;3.490;2022-09-09T11:20:30;18.90;99.90
56861;DHT22;42744;51.094;3.490;2022-09-09T11:23:20;18.90;99.90
56861;DHT22;42744;51.094;3.490;2022-09-09T11:26:00;18.90;99.90
56861;DHT22;42744;51.094;3.490;2022-09-09T11:29:02;18.80;99.90
56861;DHT22;42744;51.094;3.490;2022-09-09T11:34:17;18.70;99.90
56861;DHT22;42744;51.094;3.490;2022-09-09T11:42:07;19.10;99.90
56861;DHT22;42744;51.094;3.490;2022-09-09T11:44:41;19.30;99.90
56861;DHT22;42744;51.094;3.490;2022-09-09T11:47:27;19.70;99.90
56861;DHT22;42744;51.094;3.490;2022-09-09T11:52:46;20.00;99.90
56861;DHT22;42744;51.094;3.490;2022-09-09T11:55:27;19.90;99.90
56861;DHT22;42744;51.094;3.490;2022-09-09T11:57:59;20.20;99.90
56861;DHT22;42744;51.094;3.490;2022-09-09T12:00:46;20.50;99.90
56861;DHT22;42744;51.094;3.490;2022-09-09T12:03:33;20.60;99.90
56861;DHT22;42744;51.094;3.490;2022-09-09T12:06:11;20.60;99.90
56861;DHT22;42744;51.094;3.490;2022-09-09T12:08:42;20.70;99.90
56861;DHT22;42744;51.094;3.490;2022-09-09T12:11:08;20.90;99.90
56861;DHT22;42744;51.094;3.490;2022-09-09T12:13:34;20.90;99.90
56861;DHT22;42744;51.094;3.490;2022-09-09T12:16:03;20.90;99.90
56861;DHT22;42744;51.094;3.490;2022-09-09T12:18:38;20.60;99.90
56861;DHT22;42744;51.094;3.490;2022-09-09T12:21:20;20.40;99.90
56861;DHT22;42744;51.094;3.490;2022-09-09T12:26:41;20.30;99.90
56861;DHT22;42744;51.094;3.490;2022-09-09T12:29:33;20.20;99.90
56861;DHT22;42744;51.094;3.490;2022-09-09T12:32:23;20.00;99.90
56861;DHT22;42744;51.094;3.490;2022-09-09T12:34:53;19.80;99.90
56861;DHT22;42744;51.094;3.490;2022-09-09T12:40:26;19.40;99.90
56861;DHT22;42744;51.094;3.490;2022-09-09T12:42:52;19.30;99.90
56861;DHT22;42744;51.094;3.490;2022-09-09T12:45:23;19.40;99.90
56861;DHT22;42744;51.094;3.490;2022-09-09T12:48:05;19.80;99.90
56861;DHT22;42744;51.094;3.490;2022-09-09T12:50:36;20.30;99.90
56861;DHT22;42744;51.094;3.490;2022-09-09T12:53:15;20.30;99.90
56861;DHT22;42744;51.094;3.490;2022-09-09T12:55:52;20.10;99.90
56861;DHT22;42744;51.094;3.490;2022-09-09T12:58:19;19.80;99.90
56861;DHT22;42744;51.094;3.490;2022-09-09T13:00:53;19.70;99.90
56861;DHT22;42744;51.094;3.490;2022-09-09T13:03:22;19.60;99.90
56861;DHT22;42744;51.094;3.490;2022-09-09T13:05:49;19.70;99.90
56861;DHT22;42744;51.094;3.490;2022-09-09T13:08:16;19.70;99.90
56861;DHT22;42744;51.094;3.490;2022-09-09T13:10:58;19.80;99.90
56861;DHT22;42744;51.094;3.490;2022-09-09T13:13:28;20.30;99.90
56861;DHT22;42744;51.094;3.490;2022-09-09T13:15:58;20.80;99.90
56861;DHT22;42744;51.094;3.490;2022-09-09T13:18:28;21.20;99.90
56861;DHT22;42744;51.094;3.490;2022-09-09T13:20:55;21.20;99.90
56861;DHT22;42744;51.094;3.490;2022-09-09T13:23:28;21.00;99.90
56861;DHT22;42744;51.094;3.490;2022-09-09T13:26:04;20.80;99.90
56861;DHT22;42744;51.094;3.490;2022-09-09T13:28:32;20.80;99.90
56861;DHT22;42744;51.094;3.490;2022-09-09T13:31:00;20.80;99.90
56861;DHT22;42744;51.094;3.490;2022-09-09T13:33:35;20.50;99.90
56861;DHT22;42744;51.094;3.490;2022-09-09T13:36:08;20.20;99.90
56861;DHT22;42744;51.094;3.490;2022-09-09T13:41:34;19.30;99.90
56861;DHT22;42744;51.094;3.490;2022-09-09T13:44:02;18.80;99.90
56861;DHT22;42744;51.094;3.490;2022-09-09T13:46:39;18.50;99.90
56861;DHT22;42744;51.094;3.490;2022-09-09T13:54:10;18.30;99.90
56861;DHT22;42744;51.094;3.490;2022-09-09T13:56:38;18.50;99.90
56861;DHT22;42744;51.094;3.490;2022-09-09T13:59:06;18.60;99.90
56861;DHT22;42744;51.094;3.490;2022-09-09T14:01:35;18.70;99.90
56861;DHT22;42744;51.094;3.490;2022-09-09T14:04:01;18.80;99.90
56861;DHT22;42744;51.094;3.490;2022-09-09T14:06:27;19.00;99.90
56861;DHT22;42744;51.094;3.490;2022-09-09T14:08:54;19.30;99.90
56861;DHT22;42744;51.094;3.490;2022-09-09T14:11:21;19.70;99.90
56861;DHT22;42744;51.094;3.490;2022-09-09T14:13:48;19.70;99.90
56861;DHT22;42744;51.094;3.490;2022-09-09T14:16:16;19.50;99.90
56861;DHT22;42744;51.094;3.490;2022-09-09T14:18:44;19.20;99.90
56861;DHT22;42744;51.094;3.490;2022-09-09T14:21:10;18.80;99.90
56861;DHT22;42744;51.094;3.490;2022-09-09T14:23:37;18.60;99.90
56861;DHT22;42744;51.094;3.490;2022-09-09T14:26:08;18.40;99.90
56861;DHT22;42744;51.094;3.490;2022-09-09T14:28:35;18.20;99.90
56861;DHT22;42744;51.094;3.490;2022-09-09T14:31:03;18.00;99.90
56861;DHT22;42744;51.094;3.490;2022-09-09T14:33:30;17.80;99.90
56861;DHT22;42744;51.094;3.490;2022-09-09T14:36:00;17.70;99.90
56861;DHT22;42744;51.094;3.490;2022-09-09T14:38:36;17.70;99.90
56861;DHT22;42744;51.094;3.490;2022-09-09T14:41:06;17.60;99.90
56861;DHT22;42744;51.094;3.490;2022-09-09T14:43:32;17.70;99.90
56861;DHT22;42744;51.094;3.490;2022-09-09T14:46:06;17.80;99.90
56861;DHT22;42744;51.094;3.490;2022-09-09T14:48:32;17.90;99.90
56861;DHT22;42744;51.094;3.490;2022-09-09T14:51:14;18.00;99.90
56861;DHT22;42744;51.094;3.490;2022-09-09T14:53:43;18.40;99.90
56861;DHT22;42744;51.094;3.490;2022-09-09T14:56:14;18.80;99.90
56861;DHT22;42744;51.094;3.490;2022-09-09T14:58:41;18.90;99.90
56861;DHT22;42744;51.094;3.490;2022-09-09T15:01:13;18.90;99.90
56861;DHT22;42744;51.094;3.490;2022-09-09T15:03:40;18.80;99.90
56861;DHT22;42744;51.094;3.490;2022-09-09T15:06:11;18.80;99.90
56861;DHT22;42744;51.094;3.490;2022-09-09T15:08:43;18.70;99.90
56861;DHT22;42744;51.094;3.490;2022-09-09T15:11:11;18.70;99.90
56861;DHT22;42744;51.094;3.490;2022-09-09T15:13:39;18.60;99.90
56861;DHT22;42744;51.094;3.490;2022-09-09T15:16:19;18.60;99.90
56861;DHT22;42744;51.094;3.490;2022-09-09T15:18:46;18.50;99.90
56861;DHT22;42744;51.094;3.490;2022-09-09T15:21:18;18.40;99.90
56861;DHT22;42744;51.094;3.490;2022-09-09T15:23:48;18.30;99.90
56861;DHT22;42744;51.094;3.490;2022-09-09T15:26:14;18.10;99.90
56861;DHT22;42744;51.094;3.490;2022-09-09T15:28:41;18.00;99.90
56861;DHT22;42744;51.094;3.490;2022-09-09T15:31:14;18.00;99.90
56861;DHT22;42744;51.094;3.490;2022-09-09T15:33:40;18.00;99.90
56861;DHT22;42744;51.094;3.490;2022-09-09T15:38:48;18.30;99.90
56861;DHT22;42744;51.094;3.490;2022-09-09T15:41:15;18.30;99.90
56861;DHT22;42744;51.094;3.490;2022-09-09T15:43:49;18.40;99.90
56861;DHT22;42744;51.094;3.490;2022-09-09T15:46:37;18.40;99.90
56861;DHT22;42744;51.094;3.490;2022-09-09T15:49:12;18.50;99.90
56861;DHT22;42744;51.094;3.490;2022-09-09T15:51:44;18.60;99.90
56861;DHT22;42744;51.094;3.490;2022-09-09T15:54:15;18.70;99.90
56861;DHT22;42744;51.094;3.490;2022-09-09T15:56:47;18.70;99.90
56861;DHT22;42744;51.094;3.490;2022-09-09T15:59:16;18.60;99.90
56861;DHT22;42744;51.094;3.490;2022-09-09T16:01:42;18.70;99.90
56861;DHT22;42744;51.094;3.490;2022-09-09T16:04:08;18.60;99.90
56861;DHT22;42744;51.094;3.490;2022-09-09T16:06:35;18.70;99.90
56861;DHT22;42744;51.094;3.490;2022-09-09T16:09:03;18.70;99.90
56861;DHT22;42744;51.094;3.490;2022-09-09T16:11:33;18.60;99.90
56861;DHT22;42744;51.094;3.490;2022-09-09T16:13:59;18.60;99.90
56861;DHT22;42744;51.094;3.490;2022-09-09T16:16:27;18.50;99.90
56861;DHT22;42744;51.094;3.490;2022-09-09T16:18:58;18.50;99.90
56861;DHT22;42744;51.094;3.490;2022-09-09T16:21:36;18.50;99.90
56861;DHT22;42744;51.094;3.490;2022-09-09T16:24:05;18.40;99.90
56861;DHT22;42744;51.094;3.490;2022-09-09T16:26:33;18.40;99.90
56861;DHT22;42744;51.094;3.490;2022-09-09T16:29:00;18.30;99.90
56861;DHT22;42744;51.094;3.490;2022-09-09T16:31:28;18.30;99.90
56861;DHT22;42744;51.094;3.490;2022-09-09T16:33:54;18.30;99.90
56861;DHT22;42744;51.094;3.490;2022-09-09T16:36:31;18.30;99.90
56861;DHT22;42744;51.094;3.490;2022-09-09T16:38:59;18.30;99.90
56861;DHT22;42744;51.094;3.490;2022-09-09T16:41:27;18.20;99.90
56861;DHT22;42744;51.094;3.490;2022-09-09T16:43:58;18.20;99.90
56861;DHT22;42744;51.094;3.490;2022-09-09T16:46:26;18.10;99.90
56861;DHT22;42744;51.094;3.490;2022-09-09T16:48:53;18.10;99.90
56861;DHT22;42744;51.094;3.490;2022-09-09T16:51:26;18.00;99.90
56861;DHT22;42744;51.094;3.490;2022-09-09T16:53:54;18.00;99.90
56861;DHT22;42744;51.094;3.490;2022-09-09T16:56:22;18.00;99.90
56861;DHT22;42744;51.094;3.490;2022-09-09T16:58:52;18.10;99.90
56861;DHT22;42744;51.094;3.490;2022-09-09T17:01:22;18.00;99.90
56861;DHT22;42744;51.094;3.490;2022-09-09T17:04:01;18.00;99.90
56861;DHT22;42744;51.094;3.490;2022-09-09T17:06:29;18.00;99.90
56861;DHT22;42744;51.094;3.490;2022-09-09T17:09:01;18.00;99.90
56861;DHT22;42744;51.094;3.490;2022-09-09T17:11:28;18.00;99.90
56861;DHT22;42744;51.094;3.490;2022-09-09T17:13:55;18.00;99.90
56861;DHT22;42744;51.094;3.490;2022-09-09T17:16:24;18.00;99.90
56861;DHT22;42744;51.094;3.490;2022-09-09T17:18:50;18.00;99.90
56861;DHT22;42744;51.094;3.490;2022-09-09T17:21:19;18.00;99.90
56861;DHT22;42744;51.094;3.490;2022-09-09T17:23:46;17.90;99.90
56861;DHT22;42744;51.094;3.490;2022-09-09T17:26:16;17.90;99.90
56861;DHT22;42744;51.094;3.490;2022-09-09T17:28:43;17.90;99.90
56861;DHT22;42744;51.094;3.490;2022-09-09T17:31:12;17.80;99.90
56861;DHT22;42744;51.094;3.490;2022-09-09T17:33:41;17.80;99.90
56861;DHT22;42744;51.094;3.490;2022-09-09T17:36:11;17.70;99.90
56861;DHT22;42744;51.094;3.490;2022-09-09T17:38:38;17.80;99.90
56861;DHT22;42744;51.094;3.490;2022-09-09T17:41:06;17.70;99.90
56861;DHT22;42744;51.094;3.490;2022-09-09T17:43:49;17.70;99.90
56861;DHT22;42744;51.094;3.490;2022-09-09T17:46:18;17.70;99.90
56861;DHT22;42744;51.094;3.490;2022-09-09T17:48:49;17.60;99.90
56861;DHT22;42744;51.094;3.490;2022-09-09T17:51:18;17.60;99.90
56861;DHT22;42744;51.094;3.490;2022-09-09T17:53:51;17.60;99.90
56861;DHT22;42744;51.094;3.490;2022-09-09T17:56:20;17.60;99.90
56861;DHT22;42744;51.094;3.490;2022-09-09T17:58:48;17.50;99.90
56861;DHT22;42744;51.094;3.490;2022-09-09T18:01:19;17.50;99.90
56861;DHT22;42744;51.094;3.490;2022-09-09T18:03:46;17.50;99.90
56861;DHT22;42744;51.094;3.490;2022-09-09T18:06:21;17.40;99.90
56861;DHT22;42744;51.094;3.490;2022-09-09T18:08:54;17.40;99.90
56861;DHT22;42744;51.094;3.490;2022-09-09T18:11:23;17.40;99.90
56861;DHT22;42744;51.094;3.490;2022-09-09T18:13:52;17.40;99.90
56861;DHT22;42744;51.094;3.490;2022-09-09T18:16:19;17.30;99.90